createdAt,value
2017-11-17T19:33:33.817Z,82.07
2017-11-17T19:36:01.898Z,75.62
2017-11-17T19:38:30.063Z,74.00
2017-11-17T19:40:57.873Z,76.65
2017-11-17T19:43:25.635Z,73.50
2017-11-17T19:45:53.406Z,70.40
2017-11-17T19:48:22.195Z,106.25
2017-11-17T19:50:49.958Z,80.00
2017-11-17T19:53:17.753Z,87.93
2017-11-17T19:55:45.594Z,125.95
2017-11-17T19:58:13.481Z,95.80
2017-11-17T20:00:41.247Z,80.53
2017-11-17T20:03:09.075Z,62.20
2017-11-17T20:05:36.833Z,58.72
2017-11-17T20:08:04.616Z,69.05
2017-11-17T20:10:32.551Z,132.27
2017-11-17T20:13:00.467Z,107.05
2017-11-17T20:15:29.115Z,111.70
2017-11-17T20:17:57.034Z,77.37
2017-11-17T20:20:25.573Z,68.05
2017-11-17T20:22:53.453Z,71.93
2017-11-17T20:25:21.304Z,56.10
2017-11-17T20:27:49.064Z,58.72
2017-11-17T20:30:16.836Z,58.78
2017-11-17T20:32:44.748Z,58.25
2017-11-17T20:35:12.507Z,54.10
2017-11-17T20:37:40.279Z,53.42
2017-11-17T20:40:08.095Z,67.53
2017-11-17T20:42:35.861Z,50.53
2017-11-17T20:45:03.649Z,53.95
2017-11-17T20:47:32.248Z,62.83
2017-11-17T20:50:00.058Z,60.90
2017-11-17T20:52:27.817Z,52.80
2017-11-17T20:54:55.680Z,51.65
2017-11-17T20:57:23.439Z,52.62
2017-11-17T20:59:51.207Z,58.20
2017-11-17T21:02:19.015Z,87.72
2017-11-17T21:04:46.838Z,69.28
2017-11-17T21:07:14.912Z,62.67
2017-11-17T21:09:43.503Z,68.80
2017-11-17T21:12:11.449Z,63.55
2017-11-17T21:14:39.387Z,61.53
2017-11-17T21:17:07.350Z,66.70
2017-11-17T21:19:35.112Z,72.07
2017-11-17T21:22:03.217Z,71.43
2017-11-17T21:24:31.075Z,67.18
2017-11-17T21:26:58.831Z,70.15
2017-11-17T21:29:26.676Z,61.83
2017-11-17T21:31:54.481Z,63.38
2017-11-17T21:34:22.241Z,60.67
2017-11-17T21:36:49.998Z,61.78
2017-11-17T21:39:17.803Z,54.75
2017-11-17T21:41:45.548Z,55.67
2017-11-17T21:44:14.081Z,55.60
2017-11-17T21:46:41.889Z,58.28
2017-11-17T21:49:10.412Z,57.83
2017-11-17T21:51:38.160Z,54.70
2017-11-17T21:54:05.973Z,58.87
2017-11-17T21:56:33.724Z,63.55
2017-11-17T21:59:01.476Z,69.80
2017-11-17T22:01:29.291Z,73.22
2017-11-17T22:03:57.104Z,67.95
2017-11-17T22:06:24.923Z,63.90
2017-11-17T22:08:52.724Z,53.80
2017-11-17T22:11:20.468Z,58.22
2017-11-17T22:13:48.215Z,53.63
2017-11-17T22:16:16.013Z,58.65
2017-11-17T22:18:43.757Z,53.28
2017-11-17T22:21:11.506Z,48.97
2017-11-17T22:23:39.317Z,43.90
2017-11-17T22:26:07.076Z,47.88
2017-11-17T22:28:34.924Z,47.08
2017-11-17T22:31:02.788Z,44.40
2017-11-17T22:33:30.655Z,53.95
2017-11-17T22:35:58.518Z,53.13
2017-11-17T22:38:26.584Z,51.90
2017-11-17T22:40:55.094Z,53.28
2017-11-17T22:43:24.360Z,48.42
2017-11-17T22:45:52.200Z,54.90
2017-11-17T22:48:19.956Z,49.20
2017-11-17T22:50:47.720Z,47.03
2017-11-17T22:53:15.528Z,51.53
2017-11-17T22:55:49.861Z,66.50
2017-11-17T22:58:18.431Z,58.90
2017-11-17T23:00:46.953Z,56.88
2017-11-17T23:03:14.749Z,52.85
2017-11-17T23:05:42.555Z,49.22
2017-11-17T23:08:15.018Z,51.80
2017-11-17T23:10:43.584Z,49.72
2017-11-17T23:13:11.469Z,48.87
2017-11-17T23:15:39.257Z,51.65
2017-11-17T23:18:07.154Z,47.45
2017-11-17T23:20:34.903Z,49.65
2017-11-17T23:23:02.884Z,43.60
2017-11-17T23:25:30.701Z,43.50
2017-11-17T23:27:58.509Z,46.53
2017-11-17T23:30:26.265Z,48.85
2017-11-17T23:32:54.135Z,44.72
2017-11-17T23:35:21.885Z,48.83
2017-11-17T23:37:49.653Z,44.95
2017-11-17T23:40:17.459Z,46.08
2017-11-17T23:42:45.977Z,42.80
2017-11-17T23:45:13.728Z,45.30
2017-11-17T23:47:41.533Z,51.95
2017-11-17T23:50:09.290Z,48.25
2017-11-17T23:52:37.045Z,46.60
2017-11-17T23:55:04.873Z,44.72
2017-11-17T23:57:32.774Z,45.25
